createdAt,value
2019-02-17T00:02:04.841Z,101845.74
2019-02-17T00:04:36.926Z,101857.43
2019-02-17T00:07:08.098Z,101832.86
2019-02-17T00:09:39.390Z,101853.91
2019-02-17T00:12:10.867Z,101847.98
2019-02-17T00:14:42.088Z,101852.09
2019-02-17T00:17:13.769Z,101850.49
2019-02-17T00:19:45.342Z,101855.24
2019-02-17T00:22:16.342Z,101855.21
2019-02-17T00:24:47.171Z,101851.13
2019-02-17T00:27:18.343Z,101850.23
2019-02-17T00:29:49.381Z,101845.04
2019-02-17T00:32:20.514Z,101847.80
2019-02-17T00:34:51.608Z,101843.48
2019-02-17T00:37:22.663Z,101843.48
2019-02-17T00:39:53.821Z,101851.56
2019-02-17T00:42:24.839Z,101850.86
2019-02-17T00:44:55.956Z,101851.56
2019-02-17T00:47:27.243Z,101851.56
2019-02-17T00:49:58.389Z,101850.55
2019-02-17T00:52:29.474Z,101853.13
2019-02-17T00:55:00.582Z,101845.69
2019-02-17T00:57:33.271Z,101832.42
2019-02-17T01:00:07.585Z,101832.42
2019-02-17T01:02:38.362Z,101835.53
2019-02-17T01:05:09.228Z,101829.84
2019-02-17T01:07:40.442Z,101833.31
2019-02-17T01:10:11.968Z,101833.31
2019-02-17T01:12:42.943Z,101829.22
2019-02-17T01:15:13.923Z,101830.05
2019-02-17T01:17:45.673Z,101834.42
2019-02-17T01:20:16.579Z,101816.89
2019-02-17T01:22:47.351Z,101800.27
2019-02-17T01:25:19.401Z,101838.55
2019-02-17T01:27:50.666Z,101847.03
2019-02-17T01:30:21.982Z,101847.03
2019-02-17T01:32:52.791Z,101837.34
2019-02-17T01:35:24.144Z,101845.43
2019-02-17T01:37:55.824Z,101848.34
2019-02-17T01:40:27.104Z,101854.09
2019-02-17T01:42:58.598Z,101848.70
2019-02-17T01:45:29.670Z,101837.30
2019-02-17T01:48:01.383Z,101851.74
2019-02-17T01:50:32.559Z,101850.26
2019-02-17T01:53:04.043Z,101859.30
2019-02-17T01:55:35.187Z,101869.04
2019-02-17T01:58:06.031Z,101866.15
2019-02-17T02:00:37.120Z,101865.62
2019-02-17T02:03:08.903Z,101860.75
2019-02-17T02:05:40.614Z,101860.75
2019-02-17T02:08:11.708Z,101859.73
2019-02-17T02:10:43.319Z,101857.78
2019-02-17T02:13:14.297Z,101855.52
2019-02-17T02:15:45.418Z,101864.22
2019-02-17T02:18:16.546Z,101864.22
2019-02-17T02:20:48.059Z,101864.17
2019-02-17T02:23:18.879Z,101866.25
2019-02-17T02:25:50.422Z,101847.30
2019-02-17T02:28:21.039Z,101865.87
2019-02-17T02:30:51.987Z,101863.54
2019-02-17T02:33:22.573Z,101866.63
2019-02-17T02:35:53.810Z,101841.84
2019-02-17T02:38:24.579Z,101866.90
2019-02-17T02:40:55.740Z,101870.17
2019-02-17T02:43:26.882Z,101875.30
2019-02-17T02:45:58.201Z,101875.06
2019-02-17T02:48:29.283Z,101872.03
2019-02-17T02:51:00.382Z,101870.09
2019-02-17T02:53:31.342Z,101869.89
2019-02-17T02:56:02.325Z,101877.06
2019-02-17T02:58:32.943Z,101872.46
2019-02-17T03:01:05.526Z,101874.13
2019-02-17T03:03:37.025Z,101881.64
2019-02-17T03:06:09.466Z,101881.64
2019-02-17T03:08:40.826Z,101862.56
2019-02-17T03:11:11.946Z,101879.65
2019-02-17T03:13:43.180Z,101876.81
2019-02-17T03:16:14.513Z,101877.05
2019-02-17T03:18:45.789Z,101884.69
2019-02-17T03:21:16.510Z,101883.30
2019-02-17T03:23:47.335Z,101889.49
2019-02-17T03:26:18.823Z,101889.49
2019-02-17T03:28:49.546Z,101890.52
2019-02-17T03:31:21.589Z,101869.79
2019-02-17T03:33:52.916Z,101899.62
2019-02-17T03:36:24.338Z,101897.08
2019-02-17T03:38:55.402Z,101898.48
2019-02-17T03:41:26.263Z,101900.58
2019-02-17T03:43:57.965Z,101905.97
2019-02-17T03:46:29.400Z,101897.56
2019-02-17T03:49:00.018Z,101894.91
2019-02-17T03:51:32.351Z,101894.91
2019-02-17T03:54:03.634Z,101893.30
2019-02-17T03:56:34.428Z,101906.22
2019-02-17T03:59:05.259Z,101908.86
2019-02-17T04:01:36.667Z,101908.75
2019-02-17T04:04:07.618Z,101916.66
2019-02-17T04:06:38.986Z,101907.68
2019-02-17T04:09:09.910Z,101919.11
2019-02-17T04:11:40.921Z,101912.77
2019-02-17T04:14:11.823Z,101901.78
2019-02-17T04:16:43.323Z,101909.62
2019-02-17T04:19:14.674Z,101900.69
2019-02-17T04:21:45.888Z,101905.70
2019-02-17T04:24:16.922Z,101918.86
2019-02-17T04:26:51.300Z,101918.86
2019-02-17T04:29:22.236Z,101916.17
2019-02-17T04:31:52.883Z,101916.74
2019-02-17T04:34:23.505Z,101912.58
2019-02-17T04:36:55.278Z,101897.09
2019-02-17T04:39:26.476Z,101897.09
2019-02-17T04:41:57.105Z,101912.05
2019-02-17T04:44:28.567Z,101908.69
2019-02-17T04:46:59.825Z,101905.77
2019-02-17T04:49:30.704Z,101905.77
2019-02-17T04:52:01.991Z,101907.72
2019-02-17T04:54:33.319Z,101906.92
2019-02-17T04:57:04.284Z,101904.41
2019-02-17T04:59:35.350Z,101910.36
2019-02-17T05:02:06.364Z,101909.91
2019-02-17T05:04:37.381Z,101921.19
2019-02-17T05:07:08.778Z,101916.86
2019-02-17T05:09:40.304Z,101882.17
2019-02-17T05:12:11.277Z,101882.17
2019-02-17T05:14:42.778Z,101915.78
2019-02-17T05:17:13.590Z,101915.14
2019-02-17T05:19:44.918Z,101913.28
2019-02-17T05:22:15.650Z,101913.24
2019-02-17T05:24:46.676Z,101913.24
2019-02-17T05:27:17.791Z,101920.39
2019-02-17T05:29:48.813Z,101927.36
2019-02-17T05:32:20.128Z,101929.88
2019-02-17T05:34:50.820Z,101924.16
2019-02-17T05:37:22.176Z,101924.16
2019-02-17T05:39:53.481Z,101920.94
2019-02-17T05:42:24.307Z,101916.75
2019-02-17T05:44:55.329Z,101928.09
2019-02-17T05:47:26.527Z,101928.59
2019-02-17T05:49:59.379Z,101928.59
2019-02-17T05:52:31.897Z,101937.23
2019-02-17T05:55:03.670Z,101939.95
2019-02-17T05:57:34.467Z,101944.23
2019-02-17T06:00:08.597Z,101946.84
2019-02-17T06:02:39.759Z,101950.84
2019-02-17T06:05:11.438Z,101951.84
2019-02-17T06:07:42.552Z,101960.34
2019-02-17T06:10:13.507Z,101960.20
2019-02-17T06:12:44.722Z,101965.33
2019-02-17T06:15:16.290Z,101966.70
2019-02-17T06:17:48.021Z,101976.10
2019-02-17T06:20:19.087Z,101981.84
2019-02-17T06:22:50.056Z,101965.31
2019-02-17T06:25:21.030Z,101965.31
2019-02-17T06:27:52.448Z,101980.94
2019-02-17T06:30:23.519Z,101979.33
2019-02-17T06:32:54.919Z,101978.04
2019-02-17T06:35:25.616Z,101980.19
2019-02-17T06:37:56.349Z,101982.08
2019-02-17T06:40:26.936Z,101987.33
2019-02-17T06:42:58.102Z,101983.11
2019-02-17T06:45:29.486Z,101989.22
2019-02-17T06:48:00.701Z,101994.41
2019-02-17T06:50:32.853Z,101990.38
2019-02-17T06:53:04.061Z,101991.09
2019-02-17T06:55:36.739Z,101991.98
2019-02-17T06:58:07.638Z,101996.17
2019-02-17T07:00:40.139Z,101993.48
2019-02-17T07:03:11.581Z,101995.05
2019-02-17T07:05:44.207Z,101992.02
2019-02-17T07:08:15.225Z,101992.25
2019-02-17T07:10:45.953Z,102001.13
2019-02-17T07:13:17.025Z,101997.13
2019-02-17T07:15:50.147Z,101997.13
2019-02-17T07:18:21.405Z,102000.69
2019-02-17T07:20:52.821Z,102008.47
2019-02-17T07:23:23.538Z,102012.86
2019-02-17T07:25:54.619Z,101986.37
2019-02-17T07:28:25.701Z,101986.37
2019-02-17T07:30:56.663Z,102000.77
2019-02-17T07:33:28.337Z,102000.10
2019-02-17T07:35:59.514Z,102000.10
2019-02-17T07:38:30.985Z,102014.66
2019-02-17T07:41:02.390Z,102015.83
2019-02-17T07:43:32.863Z,102013.01
2019-02-17T07:46:03.909Z,102018.12
2019-02-17T07:48:35.565Z,102011.95
2019-02-17T07:51:06.818Z,102003.52
2019-02-17T07:53:37.405Z,102006.70
2019-02-17T07:56:07.739Z,102000.69
2019-02-17T07:58:38.247Z,102007.50
2019-02-17T08:01:08.799Z,101976.48
2019-02-17T08:03:40.481Z,102001.03
2019-02-17T08:06:12.099Z,102007.23
2019-02-17T08:08:43.686Z,101998.97
2019-02-17T08:11:18.730Z,101988.22
2019-02-17T08:13:55.078Z,101993.28
2019-02-17T08:16:32.716Z,101987.93
2019-02-17T08:19:08.784Z,101988.52
2019-02-17T08:21:40.216Z,101990.44
2019-02-17T08:24:18.549Z,101991.14
2019-02-17T08:26:59.113Z,101990.67
2019-02-17T08:29:39.712Z,101967.92
2019-02-17T08:32:14.559Z,101982.77
2019-02-17T08:34:45.423Z,101982.71
2019-02-17T08:37:17.921Z,101980.28
2019-02-17T08:39:50.177Z,101974.89
2019-02-17T08:42:22.360Z,101975.47
2019-02-17T08:44:52.920Z,101972.45
2019-02-17T08:47:23.619Z,101967.17
2019-02-17T08:49:54.300Z,101974.88
2019-02-17T08:52:24.878Z,101967.16
2019-02-17T08:54:55.436Z,101967.05
2019-02-17T08:57:26.142Z,101965.39
2019-02-17T08:59:57.465Z,101962.34
2019-02-17T09:02:28.143Z,101954.46
2019-02-17T09:04:58.997Z,101959.27
2019-02-17T09:07:30.047Z,101956.56
2019-02-17T09:10:01.139Z,101949.93
2019-02-17T09:12:31.604Z,101948.63
2019-02-17T09:15:02.701Z,101952.89
2019-02-17T09:17:33.774Z,101954.02
2019-02-17T09:20:05.110Z,101955.69
2019-02-17T09:22:35.878Z,101954.50
2019-02-17T09:25:08.983Z,101954.61
2019-02-17T09:27:39.588Z,101954.14
2019-02-17T09:30:13.176Z,101956.67
2019-02-17T09:32:43.938Z,101959.47
2019-02-17T09:35:14.349Z,101960.46
2019-02-17T09:37:45.457Z,101960.00
2019-02-17T09:40:18.325Z,101958.14
2019-02-17T09:42:49.360Z,101962.12
2019-02-17T09:45:20.185Z,101961.41
2019-02-17T09:47:50.612Z,101957.73
2019-02-17T09:50:24.464Z,101963.25
2019-02-17T09:52:55.152Z,101966.50
2019-02-17T09:55:25.883Z,101969.25
2019-02-17T09:57:56.578Z,101963.60
2019-02-17T10:00:28.160Z,101968.64
2019-02-17T10:02:58.921Z,101965.29
2019-02-17T10:05:31.627Z,101969.66
2019-02-17T10:08:11.102Z,101967.66
2019-02-17T10:10:47.044Z,101960.45
2019-02-17T10:13:18.821Z,101959.91
2019-02-17T10:15:49.466Z,101965.33
2019-02-17T10:18:27.822Z,101960.91
2019-02-17T10:21:00.469Z,101953.21
2019-02-17T10:23:33.800Z,101953.75
2019-02-17T10:26:04.186Z,101953.58
2019-02-17T10:28:42.004Z,101955.00
2019-02-17T10:31:07.942Z,101949.84
2019-02-17T10:33:38.623Z,101955.86
2019-02-17T10:36:09.047Z,101956.57
2019-02-17T10:38:39.685Z,101949.15
2019-02-17T10:41:10.400Z,101943.35
2019-02-17T10:43:40.981Z,101942.02
2019-02-17T10:46:12.613Z,101939.16
2019-02-17T10:48:43.353Z,101936.91
2019-02-17T10:51:13.644Z,101940.50
2019-02-17T10:53:43.959Z,101935.02
2019-02-17T10:56:16.414Z,101932.74
2019-02-17T10:58:47.530Z,101930.66
2019-02-17T11:01:18.100Z,101934.30
2019-02-17T11:03:52.230Z,101923.39
2019-02-17T11:06:22.723Z,101925.28
2019-02-17T11:08:53.587Z,101921.09
2019-02-17T11:11:24.209Z,101916.00
2019-02-17T11:13:54.920Z,101915.08
2019-02-17T11:16:25.167Z,101912.79
2019-02-17T11:18:55.750Z,101905.38
2019-02-17T11:21:26.185Z,101901.05
2019-02-17T11:23:57.019Z,101905.66
2019-02-17T11:26:28.279Z,101900.84
2019-02-17T11:28:58.986Z,101897.61
2019-02-17T11:31:29.747Z,101897.59
2019-02-17T11:34:00.376Z,101897.17
2019-02-17T11:36:31.511Z,101889.81
2019-02-17T11:39:01.913Z,101889.61
2019-02-17T11:41:33.578Z,101891.00
2019-02-17T11:44:04.127Z,101887.06
2019-02-17T11:46:34.519Z,101886.41
2019-02-17T11:49:05.468Z,101889.14
2019-02-17T11:51:36.657Z,101889.03
2019-02-17T11:54:10.462Z,101882.59
2019-02-17T11:56:41.658Z,101884.34
2019-02-17T11:59:12.714Z,101883.45
2019-02-17T12:01:43.863Z,101886.74
2019-02-17T12:04:15.480Z,101881.22
2019-02-17T12:06:47.071Z,101885.33
2019-02-17T12:09:18.412Z,101880.02
2019-02-17T12:11:49.338Z,101879.39
2019-02-17T12:14:20.260Z,101880.47
2019-02-17T12:16:51.152Z,101881.78
2019-02-17T12:19:22.785Z,101877.27
2019-02-17T12:21:55.497Z,101880.42
2019-02-17T12:24:28.408Z,101876.77
2019-02-17T12:27:00.773Z,101874.37
2019-02-17T12:29:33.063Z,101872.36
2019-02-17T12:32:04.134Z,101866.98
2019-02-17T12:34:35.282Z,101875.16
2019-02-17T12:37:06.197Z,101865.91
2019-02-17T12:39:37.289Z,101869.11
2019-02-17T12:42:07.844Z,101864.70
2019-02-17T12:44:39.414Z,101862.66
2019-02-17T12:47:10.612Z,101862.84
2019-02-17T12:49:41.417Z,101855.78
2019-02-17T12:52:12.307Z,101851.22
2019-02-17T12:54:43.401Z,101849.84
2019-02-17T12:57:14.967Z,101845.35
2019-02-17T12:59:46.078Z,101845.05
2019-02-17T13:02:17.998Z,101846.84
2019-02-17T13:04:48.892Z,101846.36
2019-02-17T13:07:20.020Z,101844.94
2019-02-17T13:09:50.805Z,101848.30
2019-02-17T13:12:21.915Z,101842.25
2019-02-17T13:14:52.772Z,101840.05
2019-02-17T13:17:23.341Z,101835.90
2019-02-17T13:19:55.688Z,101831.55
2019-02-17T13:22:27.384Z,101830.95
2019-02-17T13:24:58.449Z,101830.31
2019-02-17T13:27:29.324Z,101827.83
2019-02-17T13:30:00.239Z,101820.83
2019-02-17T13:32:31.375Z,101822.80
2019-02-17T13:35:02.419Z,101823.56
2019-02-17T13:37:33.147Z,101824.28
2019-02-17T13:40:06.661Z,101824.99
2019-02-17T13:42:38.084Z,101823.37
2019-02-17T13:45:11.736Z,101823.61
2019-02-17T13:47:43.315Z,101818.45
2019-02-17T13:50:16.157Z,101817.01
2019-02-17T13:52:47.450Z,101815.52
2019-02-17T13:55:18.318Z,101810.12
2019-02-17T13:57:52.326Z,101807.73
2019-02-17T14:00:23.316Z,101820.22
2019-02-17T14:02:54.350Z,101811.40
2019-02-17T14:05:25.983Z,101812.52
2019-02-17T14:07:57.258Z,101812.60
2019-02-17T14:10:28.102Z,101812.83
2019-02-17T14:12:59.273Z,101811.62
2019-02-17T14:15:30.242Z,101807.48
2019-02-17T14:18:01.504Z,101806.17
2019-02-17T14:20:32.685Z,101801.25
2019-02-17T14:23:03.899Z,101800.77
2019-02-17T14:25:35.290Z,101802.38
2019-02-17T14:28:06.699Z,101802.79
2019-02-17T14:30:37.932Z,101803.25
2019-02-17T14:33:09.158Z,101802.58
2019-02-17T14:35:40.436Z,101805.08
2019-02-17T14:38:12.166Z,101796.35
2019-02-17T14:40:43.626Z,101802.47
2019-02-17T14:43:14.797Z,101798.89
2019-02-17T14:45:45.821Z,101801.39
2019-02-17T14:48:16.493Z,101802.52
2019-02-17T14:50:48.188Z,101797.22
2019-02-17T14:53:19.087Z,101795.50
2019-02-17T14:55:50.236Z,101790.80
2019-02-17T14:58:38.200Z,101791.44
2019-02-17T15:01:52.567Z,101784.95
2019-02-17T15:04:55.206Z,101791.59
2019-02-17T15:07:40.789Z,101786.03
2019-02-17T15:10:50.249Z,101786.52
2019-02-17T15:13:49.374Z,101792.16
2019-02-17T15:16:56.111Z,101789.83
2019-02-17T15:19:46.016Z,101787.69
2019-02-17T15:22:25.718Z,101787.44
2019-02-17T15:24:56.266Z,101786.97
2019-02-17T15:27:26.839Z,101788.97
2019-02-17T15:29:57.366Z,101784.46
2019-02-17T15:32:28.269Z,101783.08
2019-02-17T15:34:58.984Z,101782.87
2019-02-17T15:37:36.959Z,101784.83
2019-02-17T15:40:32.296Z,101784.61
2019-02-17T15:43:33.318Z,101781.80
2019-02-17T15:46:47.127Z,101789.40
2019-02-17T15:49:51.690Z,101787.27
2019-02-17T15:52:57.423Z,101784.16
2019-02-17T15:55:35.855Z,101788.55
2019-02-17T15:58:35.499Z,101786.91
2019-02-17T16:01:36.161Z,101785.47
2019-02-17T16:04:45.048Z,101786.59
2019-02-17T16:07:56.815Z,101781.08
2019-02-17T16:10:40.046Z,101786.52
2019-02-17T16:13:10.927Z,101781.17
2019-02-17T16:15:42.208Z,101789.95
2019-02-17T16:18:15.999Z,101800.63
2019-02-17T16:21:03.525Z,101799.33
2019-02-17T16:24:11.205Z,101796.45
2019-02-17T16:26:55.606Z,101802.58
2019-02-17T16:29:43.274Z,101810.47
2019-02-17T16:32:23.018Z,101801.91
2019-02-17T16:35:09.907Z,101811.09
2019-02-17T16:38:05.183Z,101810.08
2019-02-17T16:40:41.535Z,101812.87
2019-02-17T16:43:15.585Z,101810.54
2019-02-17T16:45:49.733Z,101812.39
2019-02-17T16:48:27.607Z,101817.81
2019-02-17T16:51:02.702Z,101815.84
2019-02-17T16:53:33.526Z,101803.86
2019-02-17T16:56:22.216Z,101817.48
2019-02-17T16:59:27.352Z,101820.08
2019-02-17T17:02:23.263Z,101816.64
2019-02-17T17:05:23.224Z,101824.19
2019-02-17T17:11:44.735Z,101829.83
2019-02-17T17:14:43.727Z,101827.14
2019-02-17T17:17:52.576Z,101824.14
2019-02-17T17:20:59.234Z,101826.52
2019-02-17T17:23:56.504Z,101828.33
2019-02-17T17:26:59.986Z,101831.88
2019-02-17T17:30:02.047Z,101828.81
2019-02-17T17:33:24.299Z,101829.09
2019-02-17T17:36:17.519Z,101825.21
2019-02-17T17:39:17.967Z,101827.14
2019-02-17T17:41:50.433Z,101819.94
2019-02-17T17:44:23.409Z,101818.79
2019-02-17T17:46:54.766Z,101826.55
2019-02-17T17:49:28.010Z,101825.09
2019-02-17T17:51:58.851Z,101827.42
2019-02-17T17:54:29.687Z,101820.83
2019-02-17T17:57:00.445Z,101819.78
2019-02-17T17:59:31.048Z,101817.96
2019-02-17T18:02:01.976Z,101826.39
2019-02-17T18:04:32.965Z,101823.92
2019-02-17T18:07:03.975Z,101827.27
2019-02-17T18:09:34.888Z,101821.58
2019-02-17T18:12:06.359Z,101819.13
2019-02-17T18:14:38.060Z,101814.84
2019-02-17T18:17:10.514Z,101814.31
2019-02-17T18:19:42.321Z,101812.52
2019-02-17T18:22:23.362Z,101815.34
2019-02-17T18:25:00.647Z,101821.27
2019-02-17T18:27:54.750Z,101818.42
2019-02-17T18:30:32.199Z,101815.30
2019-02-17T18:33:03.811Z,101821.02
2019-02-17T18:35:35.299Z,101816.84
2019-02-17T18:38:06.419Z,101821.46
2019-02-17T18:40:44.743Z,101820.92
2019-02-17T18:43:11.266Z,101829.84
2019-02-17T18:45:43.742Z,101830.58
2019-02-17T18:48:15.702Z,101831.48
2019-02-17T18:51:00.337Z,101829.64
2019-02-17T18:53:38.716Z,101828.98
2019-02-17T18:56:10.319Z,101827.42
2019-02-17T18:58:46.328Z,101827.80
2019-02-17T19:01:19.643Z,101825.30
2019-02-17T19:03:55.230Z,101818.83
2019-02-17T19:06:35.930Z,101819.06
2019-02-17T19:09:20.861Z,101820.15
2019-02-17T19:11:55.570Z,101826.37
2019-02-17T19:14:29.711Z,101823.87
2019-02-17T19:17:05.579Z,101824.11
2019-02-17T19:19:43.926Z,101827.98
2019-02-17T19:22:29.939Z,101827.13
2019-02-17T19:25:11.696Z,101829.43
2019-02-17T19:27:51.847Z,101831.17
2019-02-17T19:30:28.376Z,101826.13
2019-02-17T19:33:03.866Z,101829.41
2019-02-17T19:35:42.269Z,101824.02
2019-02-17T19:38:17.082Z,101816.10
2019-02-17T19:40:54.004Z,101818.33
2019-02-17T19:43:29.965Z,101823.31
2019-02-17T19:46:06.012Z,101821.95
2019-02-17T19:48:42.551Z,101820.37
2019-02-17T19:51:18.205Z,101823.05
2019-02-17T19:53:53.055Z,101824.82
2019-02-17T19:56:28.037Z,101821.08
2019-02-17T19:58:59.989Z,101817.99
2019-02-17T20:01:31.499Z,101830.27
2019-02-17T20:04:27.495Z,101836.03
2019-02-17T20:07:11.302Z,101831.36
2019-02-17T20:09:45.198Z,101834.64
2019-02-17T20:12:19.379Z,101838.05
2019-02-17T20:14:51.113Z,101835.66
2019-02-17T20:17:23.320Z,101829.78
2019-02-17T20:19:54.518Z,101835.03
2019-02-17T20:22:26.801Z,101834.95
2019-02-17T20:24:58.685Z,101827.80
2019-02-17T20:27:30.717Z,101834.10
2019-02-17T20:30:03.622Z,101828.48
2019-02-17T20:32:35.001Z,101835.88
2019-02-17T20:35:09.096Z,101830.56
2019-02-17T20:37:42.450Z,101832.91
2019-02-17T20:40:15.272Z,101825.88
2019-02-17T20:42:47.051Z,101822.70
2019-02-17T20:45:22.827Z,101822.49
2019-02-17T20:47:55.761Z,101831.80
2019-02-17T20:50:34.141Z,101828.80
2019-02-17T20:53:09.368Z,101826.14
2019-02-17T20:56:02.862Z,101827.81
2019-02-17T20:58:46.120Z,101829.88
2019-02-17T21:01:21.505Z,101832.51
2019-02-17T21:03:53.579Z,101832.89
2019-02-17T21:06:24.517Z,101827.83
2019-02-17T21:08:58.522Z,101826.63
2019-02-17T21:11:53.054Z,101829.59
2019-02-17T21:15:01.876Z,101831.69
2019-02-17T21:17:54.908Z,101828.30
2019-02-17T21:20:57.195Z,101826.57
2019-02-17T21:24:14.095Z,101828.66
2019-02-17T21:27:22.641Z,101822.48
2019-02-17T21:30:33.923Z,101822.64
2019-02-17T21:33:25.160Z,101829.50
2019-02-17T21:36:00.124Z,101830.55
2019-02-17T21:38:58.896Z,101832.22
2019-02-17T21:41:40.465Z,101829.09
2019-02-17T21:44:19.465Z,101832.36
2019-02-17T21:47:09.099Z,101827.08
2019-02-17T21:49:45.699Z,101824.41
2019-02-17T21:52:32.487Z,101824.41
2019-02-17T21:55:08.566Z,101829.11
2019-02-17T21:57:39.458Z,101829.27
2019-02-17T22:00:15.075Z,101826.08
2019-02-17T22:02:46.404Z,101822.06
2019-02-17T22:05:17.772Z,101826.50
2019-02-17T22:07:52.561Z,101829.98
2019-02-17T22:10:25.416Z,101828.55
2019-02-17T22:12:57.354Z,101829.66
2019-02-17T22:15:28.407Z,101822.72
2019-02-17T22:17:59.808Z,101823.24
2019-02-17T22:20:30.648Z,101828.00
2019-02-17T22:23:01.850Z,101816.34
2019-02-17T22:25:32.896Z,101823.20
2019-02-17T22:28:04.171Z,101825.70
2019-02-17T22:30:35.246Z,101830.22
2019-02-17T22:33:06.444Z,101836.87
2019-02-17T22:35:37.561Z,101832.20
2019-02-17T22:38:08.818Z,101834.77
2019-02-17T22:40:40.651Z,101837.51
2019-02-17T22:43:11.771Z,101835.28
2019-02-17T22:45:43.053Z,101834.94
2019-02-17T22:48:14.970Z,101830.53
2019-02-17T22:50:46.933Z,101822.13
2019-02-17T22:53:18.690Z,101824.70
2019-02-17T22:55:50.722Z,101777.09
2019-02-17T22:58:21.792Z,101809.98
2019-02-17T23:00:54.415Z,101776.55
2019-02-17T23:03:27.845Z,101776.55
2019-02-17T23:05:58.496Z,101812.59
2019-02-17T23:08:29.403Z,101815.66
2019-02-17T23:11:00.917Z,101821.69
2019-02-17T23:13:31.805Z,101823.10
2019-02-17T23:16:03.109Z,101822.61
2019-02-17T23:18:34.066Z,101804.20
2019-02-17T23:21:05.316Z,101804.20
2019-02-17T23:23:36.141Z,101826.33
2019-02-17T23:26:07.144Z,101821.25
2019-02-17T23:28:38.141Z,101836.00
2019-02-17T23:31:09.279Z,101793.66
2019-02-17T23:33:40.450Z,101793.66
2019-02-17T23:36:13.033Z,101835.86
2019-02-17T23:38:44.203Z,101829.97
2019-02-17T23:41:15.251Z,101830.71
2019-02-17T23:43:46.297Z,101794.38
2019-02-17T23:46:17.086Z,101809.89
2019-02-17T23:48:48.226Z,101807.73
2019-02-17T23:51:19.238Z,101821.20
2019-02-17T23:53:50.471Z,101819.98
2019-02-17T23:56:21.078Z,101814.98
2019-02-17T23:58:52.144Z,101814.98
